Decoded Metar for LFRO (LANNION in FRANCE) (IATA:LAI) | Meteo·Mobile Aviation Weather
aviador You're here:

LFRO Decoded Metar

LANNION in FRANCE
Report Time2020-02-23 11:30:00
UTC Time2020-02-23 11:53:32
Flight Rules ifr IFR
Wind240° at 19 kt
W.Decomp.*RWY 29: 12.7 kt HW 14.1 kt LCW
Visibility9999 m
Phenomena:N/A
Clouds:Overcast 008 Hf
Expected CloudBase > 400 ft AGL from Temp-Dew spread
Ceiling800 ft
Temp12°C (ISA -2)
Dew Point11°C (94% RH)
AAT5.5°C
QNH1027 hPa
Density Alt-292 ft
Elevation292 ft
Report Wrong Elevation
Raw Report
METAR LFRO 231130Z AUTO 24019KT 9999 OVC008 12/11 Q1027=

Extra information for LFRO:More info

Metar Taf Metar & Taf Last 4 Metars F.Rules Stats Wind Profile Meteogram Temp Stats Airport Information Weather charts Add Link Nearby VenuesMetar ALERT Operation Metar Decoded Social comments